createdAt,value
2019-03-27T00:02:09.483Z,99.90
2019-03-27T00:04:40.762Z,99.90
2019-03-27T00:07:12.089Z,99.90
2019-03-27T00:09:43.426Z,99.90
2019-03-27T00:12:14.711Z,99.90
2019-03-27T00:14:46.643Z,99.90
2019-03-27T00:17:17.999Z,99.90
2019-03-27T00:19:49.310Z,99.90
2019-03-27T00:22:20.584Z,99.90
2019-03-27T00:24:51.850Z,99.90
2019-03-27T00:27:23.225Z,99.90
2019-03-27T00:29:54.796Z,99.90
2019-03-27T00:32:26.177Z,99.90
2019-03-27T00:34:57.429Z,99.90
2019-03-27T00:37:28.758Z,99.90
2019-03-27T00:40:00.354Z,99.90
2019-03-27T00:42:32.102Z,99.90
2019-03-27T00:45:03.533Z,99.90
2019-03-27T00:47:35.037Z,99.90
2019-03-27T00:50:06.528Z,99.90
2019-03-27T00:52:38.211Z,99.90
2019-03-27T00:55:10.369Z,99.90
2019-03-27T00:57:42.001Z,99.90
2019-03-27T01:00:25.678Z,99.90
2019-03-27T01:02:57.070Z,99.90
2019-03-27T01:05:28.606Z,99.90
2019-03-27T01:07:59.904Z,99.90
2019-03-27T01:10:31.267Z,99.90
2019-03-27T01:13:02.646Z,99.90
2019-03-27T01:15:39.811Z,99.90
2019-03-27T01:18:07.283Z,99.90
2019-03-27T01:20:39.154Z,99.90
2019-03-27T01:23:10.521Z,99.90
2019-03-27T01:25:42.125Z,99.90
2019-03-27T01:28:13.612Z,99.90
2019-03-27T01:30:44.884Z,99.90
2019-03-27T01:33:16.156Z,99.90
2019-03-27T01:35:47.494Z,99.90
2019-03-27T01:38:19.065Z,99.90
2019-03-27T01:40:50.715Z,99.90
2019-03-27T01:43:22.028Z,99.90
2019-03-27T01:45:53.575Z,99.90
2019-03-27T01:48:24.856Z,99.90
2019-03-27T01:50:56.242Z,99.90
2019-03-27T01:53:27.850Z,99.90
2019-03-27T01:55:59.390Z,99.90
2019-03-27T01:58:31.760Z,99.90
2019-03-27T02:01:03.102Z,99.90
2019-03-27T02:03:34.726Z,99.90
2019-03-27T02:06:05.999Z,99.90
2019-03-27T02:08:37.269Z,99.90
2019-03-27T02:11:08.561Z,99.90
2019-03-27T02:13:39.873Z,99.90
2019-03-27T02:16:11.507Z,99.90
2019-03-27T02:18:42.778Z,99.90
2019-03-27T02:21:15.223Z,99.90
2019-03-27T02:23:46.822Z,99.90
2019-03-27T02:26:18.170Z,99.90
2019-03-27T02:28:49.449Z,99.90
2019-03-27T02:31:20.706Z,99.90
2019-03-27T02:33:51.996Z,99.90
2019-03-27T02:36:23.417Z,99.90
2019-03-27T02:38:54.702Z,99.90
2019-03-27T02:41:26.888Z,99.90
2019-03-27T02:43:58.387Z,99.90
2019-03-27T02:46:30.185Z,99.90
2019-03-27T02:49:01.860Z,99.90
2019-03-27T02:51:33.101Z,99.90
2019-03-27T02:54:04.437Z,99.90
2019-03-27T02:56:36.024Z,99.90
2019-03-27T02:59:07.276Z,99.90
2019-03-27T03:01:38.654Z,99.90
2019-03-27T03:04:09.916Z,99.90
2019-03-27T03:06:41.199Z,99.90
2019-03-27T03:09:12.472Z,99.90
2019-03-27T03:11:43.747Z,99.90
2019-03-27T03:14:15.023Z,99.90
2019-03-27T03:16:46.398Z,99.90
2019-03-27T03:19:17.917Z,99.90
2019-03-27T03:21:49.259Z,99.90
2019-03-27T03:24:20.581Z,99.90
2019-03-27T03:26:51.960Z,99.90
2019-03-27T03:29:23.201Z,99.90
2019-03-27T03:31:54.547Z,99.90
2019-03-27T03:34:26.315Z,99.90
2019-03-27T03:36:57.615Z,99.90
2019-03-27T03:39:28.887Z,99.90
2019-03-27T03:42:00.297Z,99.90
2019-03-27T03:44:31.582Z,99.90
2019-03-27T03:47:03.238Z,99.90
2019-03-27T03:49:34.919Z,99.90
2019-03-27T03:52:06.445Z,99.90
2019-03-27T03:54:37.781Z,99.90
2019-03-27T03:57:10.331Z,99.90
2019-03-27T03:59:42.255Z,99.90
2019-03-27T04:02:16.405Z,99.90
2019-03-27T04:04:48.209Z,99.90
2019-03-27T04:07:19.760Z,99.90
2019-03-27T04:09:51.020Z,99.90
2019-03-27T04:12:22.343Z,99.90
2019-03-27T04:14:53.664Z,99.90
2019-03-27T04:17:26.313Z,99.90
2019-03-27T04:19:58.023Z,99.90
2019-03-27T04:22:29.615Z,99.90
2019-03-27T04:25:00.898Z,99.90
2019-03-27T04:27:32.171Z,99.90
2019-03-27T04:30:04.135Z,99.90
2019-03-27T04:32:35.429Z,99.90
2019-03-27T04:35:07.543Z,99.90
2019-03-27T04:37:39.748Z,99.90
2019-03-27T04:40:11.305Z,99.90
2019-03-27T04:42:42.721Z,99.90
2019-03-27T04:45:15.953Z,99.90
2019-03-27T04:47:47.228Z,99.90
2019-03-27T04:50:18.594Z,99.90
2019-03-27T04:52:50.474Z,99.90
2019-03-27T04:55:22.134Z,99.90
2019-03-27T04:57:53.726Z,99.90
2019-03-27T05:00:25.062Z,99.90
2019-03-27T05:02:56.381Z,99.90
2019-03-27T05:05:27.733Z,99.90
2019-03-27T05:07:58.989Z,99.90
2019-03-27T05:10:30.264Z,99.90
2019-03-27T05:13:01.551Z,99.90
2019-03-27T05:15:33.228Z,99.90
2019-03-27T05:18:04.507Z,99.90
2019-03-27T05:20:36.104Z,99.90
2019-03-27T05:23:07.451Z,99.90
2019-03-27T05:25:38.711Z,99.90
2019-03-27T05:28:10.069Z,99.90
2019-03-27T05:30:41.588Z,99.90
2019-03-27T05:33:13.207Z,99.90
2019-03-27T05:35:44.497Z,99.90
2019-03-27T05:38:15.783Z,99.90
2019-03-27T05:40:47.042Z,99.90
2019-03-27T05:43:18.697Z,99.90
2019-03-27T05:45:50.063Z,99.90
2019-03-27T05:48:21.370Z,99.90
2019-03-27T05:50:52.640Z,99.90
2019-03-27T05:53:23.912Z,99.90
2019-03-27T05:55:55.207Z,99.90
2019-03-27T05:58:26.554Z,99.90
2019-03-27T06:00:58.915Z,99.90
2019-03-27T06:03:30.192Z,99.90
2019-03-27T06:06:01.462Z,99.90
2019-03-27T06:08:32.764Z,99.90
2019-03-27T06:11:04.118Z,99.90
2019-03-27T06:13:35.730Z,99.90
2019-03-27T06:16:07.433Z,99.90
2019-03-27T06:18:39.647Z,99.90
2019-03-27T06:21:10.902Z,99.90
2019-03-27T06:23:42.256Z,99.90
2019-03-27T06:26:13.496Z,99.90
2019-03-27T06:28:44.761Z,99.90
2019-03-27T06:31:16.085Z,99.90
2019-03-27T06:33:47.427Z,99.90
2019-03-27T06:36:18.958Z,99.90
2019-03-27T06:38:50.229Z,99.90
2019-03-27T06:41:21.484Z,99.90
2019-03-27T06:43:52.782Z,99.90
2019-03-27T06:46:24.637Z,99.90
2019-03-27T06:48:55.943Z,99.90
2019-03-27T06:51:39.431Z,99.90
2019-03-27T06:54:00.343Z,99.90
2019-03-27T06:56:31.677Z,99.90
2019-03-27T06:59:02.967Z,99.90
2019-03-27T07:01:34.622Z,99.90
2019-03-27T07:04:10.904Z,99.90
2019-03-27T07:06:38.886Z,99.90
2019-03-27T07:09:10.523Z,99.90
2019-03-27T07:11:42.150Z,99.90
2019-03-27T07:14:13.453Z,99.90
2019-03-27T07:16:44.881Z,99.90
2019-03-27T07:19:16.433Z,99.90
2019-03-27T07:21:47.827Z,99.90
2019-03-27T07:24:19.590Z,99.90
2019-03-27T07:26:50.857Z,99.90
2019-03-27T07:29:23.082Z,99.90
2019-03-27T07:31:54.365Z,99.90
2019-03-27T07:34:25.664Z,99.90
2019-03-27T07:36:56.964Z,99.90
2019-03-27T07:39:28.251Z,99.90
2019-03-27T07:41:59.761Z,99.90
2019-03-27T07:44:31.014Z,99.90
2019-03-27T07:47:02.324Z,99.00
2019-03-27T07:49:34.374Z,97.60
2019-03-27T07:52:06.053Z,95.80
2019-03-27T07:54:37.327Z,95.30
2019-03-27T07:57:08.971Z,95.40
2019-03-27T07:59:40.287Z,95.20
2019-03-27T08:02:11.889Z,95.60
2019-03-27T08:04:43.549Z,96.90
2019-03-27T08:07:26.165Z,98.40
2019-03-27T08:09:47.968Z,99.00
2019-03-27T08:12:19.259Z,98.50
2019-03-27T08:14:50.517Z,99.20
2019-03-27T08:17:21.838Z,98.50
2019-03-27T08:19:54.197Z,99.00
2019-03-27T08:22:25.493Z,97.80
2019-03-27T08:24:56.765Z,96.50
2019-03-27T08:27:28.649Z,94.40
2019-03-27T08:29:59.921Z,91.90
2019-03-27T08:32:31.262Z,88.30
2019-03-27T08:35:02.529Z,88.00
2019-03-27T08:37:33.811Z,90.50
2019-03-27T08:40:05.805Z,91.20
2019-03-27T08:42:37.418Z,93.00
2019-03-27T08:45:09.327Z,93.70
2019-03-27T08:47:40.597Z,95.40
2019-03-27T08:50:13.149Z,95.90
2019-03-27T08:52:44.491Z,96.30
2019-03-27T08:55:15.829Z,97.10
2019-03-27T08:57:47.389Z,95.60
2019-03-27T09:00:23.817Z,87.10
2019-03-27T09:02:55.101Z,76.60
2019-03-27T09:05:26.378Z,67.90
2019-03-27T09:07:57.937Z,68.60
2019-03-27T09:10:29.489Z,70.40
2019-03-27T09:13:01.117Z,74.80
2019-03-27T09:15:32.658Z,75.20
2019-03-27T09:18:04.913Z,79.00
2019-03-27T09:20:36.369Z,83.60
2019-03-27T09:23:08.265Z,88.20
2019-03-27T09:25:39.539Z,90.90
2019-03-27T09:28:11.900Z,92.50
2019-03-27T09:30:43.555Z,93.40
2019-03-27T09:33:15.365Z,93.90
2019-03-27T09:35:47.129Z,94.50
2019-03-27T09:38:18.451Z,95.30
2019-03-27T09:40:49.719Z,95.00
2019-03-27T09:43:21.145Z,94.60
2019-03-27T09:45:52.417Z,94.70
2019-03-27T09:48:23.885Z,94.50
2019-03-27T09:50:55.148Z,93.90
2019-03-27T09:53:26.529Z,90.40
2019-03-27T09:55:57.830Z,80.90
2019-03-27T09:58:29.128Z,73.70
2019-03-27T10:01:02.909Z,59.60
2019-03-27T10:03:34.497Z,53.30
2019-03-27T10:06:05.927Z,52.10
2019-03-27T10:08:37.334Z,55.40
2019-03-27T10:11:08.938Z,66.30
2019-03-27T10:13:40.299Z,71.30
2019-03-27T10:16:11.569Z,78.80
2019-03-27T10:18:42.853Z,80.20
2019-03-27T10:21:14.137Z,82.50
2019-03-27T10:23:45.445Z,83.80
2019-03-27T10:26:17.502Z,85.30
2019-03-27T10:28:49.166Z,86.10
2019-03-27T10:31:21.528Z,87.90
2019-03-27T10:33:53.189Z,87.90
2019-03-27T10:36:24.465Z,87.50
2019-03-27T10:38:55.802Z,88.70
2019-03-27T10:41:28.136Z,90.10
2019-03-27T10:43:59.412Z,90.20
2019-03-27T10:46:30.660Z,89.30
2019-03-27T10:49:01.926Z,87.50
2019-03-27T10:51:33.264Z,89.80
2019-03-27T10:54:04.693Z,90.50
2019-03-27T10:56:35.950Z,91.40
2019-03-27T10:59:07.219Z,91.60
2019-03-27T11:01:39.477Z,92.70
2019-03-27T11:04:10.770Z,92.40
2019-03-27T11:06:42.015Z,91.80
2019-03-27T11:09:13.706Z,90.20
2019-03-27T11:11:44.950Z,90.00
2019-03-27T11:14:16.240Z,90.50
2019-03-27T11:16:47.473Z,90.10
2019-03-27T11:19:18.726Z,88.00
2019-03-27T11:21:50.375Z,89.90
2019-03-27T11:24:21.647Z,89.00
2019-03-27T11:26:52.893Z,88.60
2019-03-27T11:29:24.494Z,86.00
2019-03-27T11:31:55.756Z,82.00
2019-03-27T11:34:27.038Z,78.90
2019-03-27T11:36:58.626Z,78.60
2019-03-27T11:39:30.190Z,80.50
2019-03-27T11:42:01.503Z,81.20
2019-03-27T11:44:32.780Z,81.30
2019-03-27T11:47:04.206Z,83.50
2019-03-27T11:49:35.758Z,83.60
2019-03-27T11:52:07.978Z,83.40
2019-03-27T11:54:39.527Z,82.40
2019-03-27T11:57:10.831Z,83.50
2019-03-27T11:59:53.162Z,83.40
2019-03-27T12:02:15.736Z,84.20
2019-03-27T12:04:46.974Z,84.00
2019-03-27T12:07:18.598Z,80.40
2019-03-27T12:09:50.064Z,80.60
2019-03-27T12:12:21.297Z,82.00
2019-03-27T12:14:52.525Z,82.70
2019-03-27T12:17:24.109Z,81.70
2019-03-27T12:19:55.471Z,79.90
2019-03-27T12:22:26.722Z,76.60
2019-03-27T12:24:57.978Z,77.40
2019-03-27T12:27:29.235Z,69.60
2019-03-27T12:30:00.567Z,73.70
2019-03-27T12:32:33.968Z,69.80
2019-03-27T12:35:05.477Z,67.00
2019-03-27T12:37:37.330Z,65.70
2019-03-27T12:40:12.018Z,63.70
2019-03-27T12:42:41.642Z,70.90
2019-03-27T12:45:13.333Z,72.60
2019-03-27T12:47:44.862Z,70.50
2019-03-27T12:50:16.317Z,60.90
2019-03-27T12:52:47.578Z,60.80
2019-03-27T12:55:19.148Z,61.20
2019-03-27T12:57:51.401Z,65.80
2019-03-27T13:00:22.810Z,66.70
2019-03-27T13:02:54.137Z,68.20
2019-03-27T13:05:25.738Z,68.50
2019-03-27T13:07:57.372Z,68.70
2019-03-27T13:10:28.627Z,69.80
2019-03-27T13:12:59.972Z,64.90
2019-03-27T13:15:31.537Z,63.40
2019-03-27T13:18:02.863Z,65.70
2019-03-27T13:20:34.412Z,70.90
2019-03-27T13:23:06.918Z,74.50
2019-03-27T13:25:38.252Z,74.10
2019-03-27T13:28:09.797Z,75.20
2019-03-27T13:30:41.197Z,76.00
2019-03-27T13:33:12.937Z,79.00
2019-03-27T13:35:44.262Z,79.00
2019-03-27T13:38:15.773Z,78.30
2019-03-27T13:40:47.044Z,78.80
2019-03-27T13:43:18.378Z,75.80
2019-03-27T13:45:49.649Z,76.00
2019-03-27T13:48:20.898Z,75.10
2019-03-27T13:50:52.149Z,72.40
2019-03-27T13:53:23.473Z,74.90
2019-03-27T13:55:54.736Z,77.20
2019-03-27T13:58:25.996Z,76.40
2019-03-27T14:00:57.357Z,77.50
2019-03-27T14:03:28.599Z,76.40
2019-03-27T14:05:59.882Z,77.60
2019-03-27T14:08:31.146Z,76.50
2019-03-27T14:11:02.382Z,76.10
2019-03-27T14:13:33.909Z,80.20
2019-03-27T14:16:06.385Z,78.00
2019-03-27T14:18:37.624Z,80.90
2019-03-27T14:21:09.086Z,85.00
2019-03-27T14:23:40.451Z,86.00
2019-03-27T14:26:11.707Z,88.40
2019-03-27T14:28:43.275Z,84.90
2019-03-27T14:31:14.657Z,84.70
2019-03-27T14:33:45.923Z,88.90
2019-03-27T14:36:17.530Z,87.30
2019-03-27T14:38:49.033Z,88.70
2019-03-27T14:41:20.673Z,88.50
2019-03-27T14:43:51.950Z,88.60
2019-03-27T14:46:23.179Z,89.80
2019-03-27T14:48:54.401Z,88.80
2019-03-27T14:51:25.647Z,90.30
2019-03-27T14:53:56.953Z,90.10
2019-03-27T14:56:28.263Z,90.00
2019-03-27T14:59:00.516Z,89.30
2019-03-27T15:01:31.793Z,88.20
2019-03-27T15:04:03.105Z,87.80
2019-03-27T15:06:34.687Z,86.00
2019-03-27T15:09:07.519Z,87.00
2019-03-27T15:11:38.805Z,85.20
2019-03-27T15:14:10.062Z,84.80
2019-03-27T15:16:41.341Z,81.90
2019-03-27T15:19:13.161Z,83.10
2019-03-27T15:21:45.404Z,83.60
2019-03-27T15:24:16.773Z,82.50
2019-03-27T15:26:48.037Z,82.10
2019-03-27T15:29:19.294Z,84.10
2019-03-27T15:31:51.054Z,83.20
2019-03-27T15:34:22.331Z,83.20
2019-03-27T15:36:53.652Z,82.70
2019-03-27T15:39:25.165Z,85.70
2019-03-27T15:41:56.478Z,85.50
2019-03-27T15:44:27.775Z,85.80
2019-03-27T15:46:59.083Z,87.80
2019-03-27T15:49:30.375Z,88.90
2019-03-27T15:52:02.019Z,88.80
2019-03-27T15:54:33.266Z,89.90
2019-03-27T15:57:04.926Z,89.10
2019-03-27T15:59:36.239Z,88.20
2019-03-27T16:02:08.273Z,89.30
2019-03-27T16:04:41.653Z,89.60
2019-03-27T16:07:13.836Z,90.20
2019-03-27T16:09:45.074Z,89.30
2019-03-27T16:12:16.830Z,90.60
2019-03-27T16:14:49.137Z,90.00
2019-03-27T16:17:20.946Z,90.60
2019-03-27T16:19:52.201Z,91.10
2019-03-27T16:22:23.883Z,90.70
2019-03-27T16:24:55.154Z,90.70
2019-03-27T16:27:26.937Z,91.30
2019-03-27T16:29:58.397Z,91.20
2019-03-27T16:32:29.641Z,91.60
2019-03-27T16:35:00.906Z,91.90
2019-03-27T16:37:32.387Z,92.20
2019-03-27T16:40:04.645Z,92.40
2019-03-27T16:42:36.290Z,92.90
2019-03-27T16:45:09.107Z,92.50
2019-03-27T16:47:40.441Z,93.00
2019-03-27T16:50:12.378Z,92.50
2019-03-27T16:52:43.995Z,92.70
2019-03-27T16:55:15.635Z,92.60
2019-03-27T16:57:47.283Z,92.80
2019-03-27T17:00:19.653Z,92.60
2019-03-27T17:02:51.488Z,92.80
2019-03-27T17:05:22.810Z,92.70
2019-03-27T17:07:54.091Z,92.80
2019-03-27T17:10:25.463Z,92.80
2019-03-27T17:12:57.045Z,93.20
2019-03-27T17:15:28.525Z,93.70
2019-03-27T17:17:59.822Z,93.60
2019-03-27T17:20:31.581Z,93.60
2019-03-27T17:23:17.039Z,93.60
2019-03-27T17:25:36.451Z,94.40
2019-03-27T17:28:07.789Z,94.90
2019-03-27T17:30:39.409Z,94.70
2019-03-27T17:33:11.592Z,95.50
2019-03-27T17:35:42.986Z,95.60
2019-03-27T17:38:14.332Z,96.10
2019-03-27T17:40:45.781Z,96.30
2019-03-27T17:43:17.451Z,96.40
2019-03-27T17:45:48.821Z,96.50
2019-03-27T17:48:20.075Z,96.50
2019-03-27T17:50:52.368Z,96.30
2019-03-27T17:53:31.499Z,96.10
2019-03-27T17:55:56.614Z,96.70
2019-03-27T17:58:27.895Z,96.60
2019-03-27T18:01:03.098Z,96.80
2019-03-27T18:03:34.423Z,96.90
2019-03-27T18:06:05.741Z,97.00
2019-03-27T18:08:37.132Z,97.00
2019-03-27T18:11:08.380Z,97.40
2019-03-27T18:13:39.656Z,97.60
2019-03-27T18:16:10.905Z,97.90
2019-03-27T18:18:42.192Z,98.20
2019-03-27T18:21:14.689Z,99.40
2019-03-27T18:23:46.794Z,99.70
2019-03-27T18:26:18.242Z,99.90
2019-03-27T18:28:49.511Z,99.90
2019-03-27T18:31:21.858Z,99.90
2019-03-27T18:33:53.290Z,99.90
2019-03-27T18:36:24.646Z,99.90
2019-03-27T18:38:55.920Z,99.90
2019-03-27T18:41:27.174Z,99.90
2019-03-27T18:43:58.487Z,99.90
2019-03-27T18:46:30.126Z,99.90
2019-03-27T18:49:01.402Z,99.90
2019-03-27T18:51:32.741Z,99.90
2019-03-27T18:54:05.219Z,99.90
2019-03-27T18:56:36.880Z,99.90
2019-03-27T18:59:08.125Z,99.90
2019-03-27T19:01:39.553Z,99.90
2019-03-27T19:04:10.823Z,99.90
2019-03-27T19:06:42.564Z,99.90
2019-03-27T19:09:14.041Z,99.90
2019-03-27T19:11:45.435Z,99.90
2019-03-27T19:14:16.751Z,99.90
2019-03-27T19:16:48.159Z,99.90
2019-03-27T19:19:19.419Z,99.90
2019-03-27T19:21:50.930Z,99.90
2019-03-27T19:26:10.291Z,99.80
2019-03-27T19:28:41.924Z,99.90
2019-03-27T19:31:13.249Z,99.90
2019-03-27T19:33:44.522Z,99.90
2019-03-27T19:36:16.084Z,99.90
2019-03-27T19:38:47.518Z,99.90
2019-03-27T19:41:19.253Z,99.90
2019-03-27T19:43:50.542Z,99.90
2019-03-27T19:46:21.906Z,99.90
2019-03-27T19:48:53.162Z,99.90
2019-03-27T19:51:24.410Z,99.90
2019-03-27T19:53:55.799Z,99.90
2019-03-27T19:56:27.158Z,99.90
2019-03-27T19:58:58.406Z,99.90
2019-03-27T20:01:29.797Z,99.90
2019-03-27T20:04:01.288Z,99.90
2019-03-27T20:06:33.522Z,99.90
2019-03-27T20:09:07.350Z,99.90
2019-03-27T20:11:39.620Z,99.90
2019-03-27T20:14:11.405Z,99.90
2019-03-27T20:16:43.780Z,99.90
2019-03-27T20:19:15.453Z,99.90
2019-03-27T20:21:47.688Z,99.90
2019-03-27T20:24:18.944Z,99.90
2019-03-27T20:26:50.314Z,99.90
2019-03-27T20:29:21.665Z,99.90
2019-03-27T20:31:52.933Z,99.90
2019-03-27T20:34:24.205Z,99.90
2019-03-27T20:36:55.571Z,99.90
2019-03-27T20:39:27.145Z,99.90
2019-03-27T20:41:58.465Z,99.90
2019-03-27T20:44:29.995Z,99.90
2019-03-27T20:47:01.281Z,99.90
2019-03-27T20:49:32.688Z,99.90
2019-03-27T20:52:04.029Z,99.90
2019-03-27T20:54:35.378Z,99.90
2019-03-27T20:57:06.701Z,99.90
2019-03-27T20:59:37.969Z,99.90
2019-03-27T21:02:09.574Z,99.90
2019-03-27T21:04:41.444Z,99.90
2019-03-27T21:07:12.737Z,99.90
2019-03-27T21:09:44.080Z,99.90
2019-03-27T21:12:15.688Z,99.90
2019-03-27T21:14:46.947Z,99.90
2019-03-27T21:17:18.522Z,99.90
2019-03-27T21:19:50.132Z,99.90
2019-03-27T21:22:21.480Z,99.90
2019-03-27T21:24:53.059Z,99.90
2019-03-27T21:27:24.339Z,99.90
2019-03-27T21:29:57.058Z,99.90
2019-03-27T21:32:28.294Z,99.90
2019-03-27T21:34:59.620Z,99.90
2019-03-27T21:37:49.862Z,99.90
2019-03-27T21:40:21.197Z,99.90
2019-03-27T21:42:52.502Z,99.90
2019-03-27T21:45:24.216Z,99.90
2019-03-27T21:47:55.857Z,99.90
2019-03-27T21:50:27.194Z,99.90
2019-03-27T21:53:00.884Z,99.90
2019-03-27T21:55:42.123Z,99.90
2019-03-27T21:58:04.711Z,99.90
2019-03-27T22:00:38.404Z,99.90
2019-03-27T22:03:10.046Z,99.90
2019-03-27T22:05:41.485Z,99.90
2019-03-27T22:08:12.980Z,99.90
2019-03-27T22:10:44.281Z,99.90
2019-03-27T22:13:17.357Z,99.90
2019-03-27T22:15:48.659Z,99.90
2019-03-27T22:18:19.951Z,99.90
2019-03-27T22:20:51.499Z,99.90
2019-03-27T22:23:22.841Z,99.90
2019-03-27T22:25:55.109Z,99.90
2019-03-27T22:28:26.417Z,99.90
2019-03-27T22:30:57.736Z,99.90
2019-03-27T22:33:29.045Z,99.90
2019-03-27T22:36:00.422Z,99.90
2019-03-27T22:38:31.835Z,99.90
2019-03-27T22:41:03.123Z,99.90
2019-03-27T22:43:34.435Z,99.90
2019-03-27T22:46:05.824Z,99.90
2019-03-27T22:48:37.146Z,99.90
2019-03-27T22:51:08.543Z,99.90
2019-03-27T22:53:39.953Z,99.90
2019-03-27T22:56:11.867Z,99.90
2019-03-27T22:58:43.614Z,99.90
2019-03-27T23:01:14.977Z,99.90
2019-03-27T23:03:48.009Z,99.90
2019-03-27T23:06:19.273Z,99.90
2019-03-27T23:08:51.102Z,99.90
2019-03-27T23:11:22.394Z,99.90
2019-03-27T23:13:54.202Z,99.90
2019-03-27T23:16:25.500Z,99.90
2019-03-27T23:18:56.852Z,99.90
2019-03-27T23:21:28.117Z,99.90
2019-03-27T23:23:59.509Z,99.90
2019-03-27T23:26:30.816Z,99.90
2019-03-27T23:29:02.122Z,99.90
2019-03-27T23:31:33.582Z,99.90
2019-03-27T23:34:05.029Z,99.90
2019-03-27T23:36:36.284Z,99.90
2019-03-27T23:39:09.411Z,99.90
2019-03-27T23:41:41.056Z,99.90
2019-03-27T23:44:12.519Z,99.90
2019-03-27T23:46:44.872Z,99.90
2019-03-27T23:49:16.172Z,99.90
2019-03-27T23:51:47.546Z,99.90
2019-03-27T23:54:18.860Z,99.90
2019-03-27T23:56:50.217Z,99.90
2019-03-27T23:59:21.544Z,99.90
